createdAt,value
2022-11-08T00:00:07.635Z,81.00
2022-11-08T00:02:34.719Z,81.20
2022-11-08T00:05:23.872Z,81.10
2022-11-08T00:08:09.462Z,81.20
2022-11-08T00:10:54.955Z,81.20
2022-11-08T00:13:40.265Z,81.30
2022-11-08T00:16:07.229Z,81.30
2022-11-08T00:18:35.206Z,81.30
2022-11-08T00:21:03.406Z,81.40
2022-11-08T00:23:30.371Z,81.50
2022-11-08T00:25:57.237Z,81.50
2022-11-08T00:28:24.030Z,81.50
2022-11-08T00:30:50.779Z,81.50
2022-11-08T00:33:17.531Z,81.70
2022-11-08T00:35:44.246Z,81.70
2022-11-08T00:38:10.925Z,81.80
2022-11-08T00:40:37.676Z,81.70
2022-11-08T00:43:04.401Z,81.90
2022-11-08T00:45:31.172Z,81.90
2022-11-08T00:47:57.856Z,82.00
2022-11-08T00:50:24.621Z,82.00
2022-11-08T00:52:51.340Z,82.00
2022-11-08T00:55:18.019Z,82.00
2022-11-08T00:57:59.032Z,82.00
2022-11-08T01:00:26.453Z,82.10
2022-11-08T01:03:13.184Z,82.10
2022-11-08T01:05:40.096Z,82.20
2022-11-08T01:08:06.857Z,82.20
2022-11-08T01:10:33.611Z,82.30
2022-11-08T01:13:00.355Z,82.30
2022-11-08T01:15:27.164Z,82.40
2022-11-08T01:17:54.308Z,82.40
2022-11-08T01:20:21.103Z,82.40
2022-11-08T01:22:49.892Z,82.50
2022-11-08T01:25:16.805Z,82.50
2022-11-08T01:27:44.136Z,82.60
2022-11-08T01:30:11.217Z,82.60
2022-11-08T01:32:38.285Z,82.70
2022-11-08T01:35:05.853Z,82.60
2022-11-08T01:37:32.663Z,82.70
2022-11-08T01:39:59.354Z,82.70
2022-11-08T01:42:31.354Z,82.70
2022-11-08T01:45:04.644Z,82.80
2022-11-08T01:47:31.540Z,82.80
2022-11-08T01:50:09.358Z,82.90
2022-11-08T01:52:43.511Z,82.90
2022-11-08T01:55:25.334Z,82.90
2022-11-08T01:57:55.371Z,82.90
2022-11-08T02:00:22.500Z,82.90
2022-11-08T02:02:59.401Z,83.00
2022-11-08T02:05:28.329Z,83.00
2022-11-08T02:08:04.589Z,83.10
2022-11-08T02:10:39.908Z,83.10
2022-11-08T02:13:15.194Z,83.10
2022-11-08T02:15:42.999Z,83.10
2022-11-08T02:18:10.717Z,83.10
2022-11-08T02:20:37.752Z,83.20
2022-11-08T02:23:17.277Z,83.20
2022-11-08T02:25:44.156Z,84.00
2022-11-08T02:28:10.960Z,83.20
2022-11-08T02:30:38.518Z,83.30
2022-11-08T02:33:21.746Z,83.40
2022-11-08T02:35:54.286Z,83.30
2022-11-08T02:38:22.602Z,83.40
2022-11-08T02:40:51.980Z,83.50
2022-11-08T02:43:22.575Z,83.50
2022-11-08T02:45:50.394Z,84.20
2022-11-08T02:48:18.904Z,83.40
2022-11-08T02:50:46.714Z,83.50
2022-11-08T02:53:13.759Z,83.50
2022-11-08T02:55:40.591Z,83.50
2022-11-08T02:58:07.564Z,83.60
2022-11-08T03:00:34.887Z,84.40
2022-11-08T03:03:01.679Z,83.60
2022-11-08T03:05:29.470Z,83.60
2022-11-08T03:07:56.687Z,83.60
2022-11-08T03:10:25.185Z,83.60
2022-11-08T03:13:00.363Z,83.60
2022-11-08T03:15:28.142Z,83.60
2022-11-08T03:17:58.790Z,83.60
2022-11-08T03:20:32.228Z,83.60
2022-11-08T03:23:06.720Z,83.60
2022-11-08T03:25:33.870Z,83.50
2022-11-08T03:28:06.212Z,83.50
2022-11-08T03:30:34.270Z,83.50
2022-11-08T03:33:01.256Z,83.60
2022-11-08T03:35:28.013Z,83.50
2022-11-08T03:37:56.279Z,83.50
2022-11-08T03:40:24.627Z,83.60
2022-11-08T03:42:51.468Z,83.50
2022-11-08T03:45:18.532Z,83.50
2022-11-08T03:47:47.000Z,83.50
2022-11-08T03:50:17.687Z,83.50
2022-11-08T03:52:52.838Z,83.60
2022-11-08T03:55:21.726Z,83.50
2022-11-08T03:57:52.621Z,83.50
2022-11-08T04:00:23.138Z,83.60
2022-11-08T04:02:50.028Z,83.60
2022-11-08T04:05:17.626Z,83.60
2022-11-08T04:07:44.627Z,83.60
2022-11-08T04:10:12.040Z,83.60
2022-11-08T04:13:01.199Z,83.60
2022-11-08T04:15:29.572Z,83.60
2022-11-08T04:18:16.008Z,83.60
2022-11-08T04:21:06.993Z,83.50
2022-11-08T04:23:35.861Z,83.40
2022-11-08T04:26:05.478Z,83.40
2022-11-08T04:28:34.009Z,83.30
2022-11-08T04:31:03.702Z,83.30
2022-11-08T04:33:30.809Z,83.20
2022-11-08T04:36:04.663Z,83.10
2022-11-08T04:38:32.628Z,83.20
2022-11-08T04:41:09.441Z,83.10
2022-11-08T04:43:36.378Z,83.00
2022-11-08T04:46:08.415Z,82.80
2022-11-08T04:48:35.853Z,82.80
2022-11-08T04:51:08.439Z,82.70
2022-11-08T04:53:35.167Z,82.70
2022-11-08T04:56:11.018Z,82.60
2022-11-08T04:58:43.093Z,82.60
2022-11-08T05:01:11.711Z,82.50
2022-11-08T05:03:38.515Z,82.50
2022-11-08T05:06:10.203Z,82.30
2022-11-08T05:08:36.990Z,82.30
2022-11-08T05:11:09.055Z,82.30
2022-11-08T05:13:35.850Z,82.30
2022-11-08T05:16:05.677Z,82.10
2022-11-08T05:18:33.106Z,82.10
2022-11-08T05:21:19.919Z,82.10
2022-11-08T05:23:48.459Z,82.10
2022-11-08T05:26:16.615Z,82.00
2022-11-08T05:28:43.493Z,82.10
2022-11-08T05:31:10.619Z,82.10
2022-11-08T05:33:37.391Z,82.00
2022-11-08T05:36:06.487Z,81.90
2022-11-08T05:38:34.132Z,81.90
2022-11-08T05:41:15.850Z,81.90
2022-11-08T05:43:45.020Z,81.90
2022-11-08T05:46:12.100Z,81.80
2022-11-08T05:48:39.245Z,81.80
2022-11-08T05:51:06.175Z,81.80
2022-11-08T05:53:33.003Z,81.60
2022-11-08T05:56:02.152Z,81.70
2022-11-08T05:58:29.977Z,81.50
2022-11-08T06:01:26.739Z,81.50
2022-11-08T06:03:53.563Z,81.50
2022-11-08T06:06:21.513Z,81.40
2022-11-08T06:08:50.907Z,81.40
2022-11-08T06:11:24.110Z,81.40
2022-11-08T06:13:51.723Z,81.40
2022-11-08T06:16:19.829Z,81.30
2022-11-08T06:18:47.137Z,81.20
2022-11-08T06:21:19.176Z,81.20
2022-11-08T06:23:46.226Z,81.10
2022-11-08T06:26:13.111Z,81.00
2022-11-08T06:28:39.913Z,80.90
2022-11-08T06:31:06.820Z,80.80
2022-11-08T06:33:34.169Z,81.80
2022-11-08T06:36:01.268Z,80.80
2022-11-08T06:38:28.038Z,80.80
2022-11-08T06:40:54.901Z,80.80
2022-11-08T06:43:24.713Z,80.70
2022-11-08T06:45:51.772Z,80.60
2022-11-08T06:48:18.741Z,80.50
2022-11-08T06:50:45.817Z,80.50
2022-11-08T06:53:14.066Z,80.40
2022-11-08T06:55:41.314Z,80.50
2022-11-08T06:58:08.158Z,80.40
2022-11-08T07:00:35.203Z,80.40
2022-11-08T07:03:05.543Z,80.20
2022-11-08T07:05:34.729Z,80.30
2022-11-08T07:08:04.046Z,80.10
2022-11-08T07:10:33.989Z,80.20
2022-11-08T07:13:06.545Z,80.20
2022-11-08T07:15:34.655Z,80.10
2022-11-08T07:18:10.237Z,80.00
2022-11-08T07:20:38.159Z,79.90
2022-11-08T07:23:06.668Z,80.00
2022-11-08T07:25:34.425Z,79.90
2022-11-08T07:28:03.459Z,79.80
2022-11-08T07:30:31.003Z,79.70
2022-11-08T07:32:58.551Z,79.60
2022-11-08T07:35:27.854Z,79.60
2022-11-08T07:37:55.833Z,79.50
2022-11-08T07:40:23.089Z,79.30
2022-11-08T07:43:10.668Z,79.40
2022-11-08T07:45:37.404Z,79.30
2022-11-08T07:48:11.424Z,79.10
2022-11-08T07:50:40.765Z,79.00
2022-11-08T07:53:07.778Z,79.10
2022-11-08T07:55:37.540Z,79.00
2022-11-08T07:58:05.039Z,79.70
2022-11-08T08:00:36.497Z,79.60
2022-11-08T08:03:05.249Z,78.70
2022-11-08T08:05:38.464Z,78.60
2022-11-08T08:08:06.270Z,78.60
2022-11-08T08:10:33.737Z,78.50
2022-11-08T08:13:01.125Z,78.50
2022-11-08T08:15:27.850Z,78.40
2022-11-08T08:17:54.844Z,78.30
2022-11-08T08:20:21.681Z,78.00
2022-11-08T08:22:50.233Z,77.90
2022-11-08T08:25:17.995Z,77.80
2022-11-08T08:27:51.970Z,77.50
2022-11-08T08:30:19.338Z,77.20
2022-11-08T08:32:53.558Z,77.20
2022-11-08T08:35:29.486Z,77.30
2022-11-08T08:38:03.073Z,77.20
2022-11-08T08:40:30.217Z,77.00
2022-11-08T08:42:59.454Z,76.70
2022-11-08T08:45:27.213Z,76.90
2022-11-08T08:47:56.124Z,76.80
2022-11-08T08:50:24.077Z,76.70
2022-11-08T08:52:50.827Z,76.40
2022-11-08T08:55:18.779Z,76.30
2022-11-08T08:57:47.586Z,76.30
2022-11-08T09:03:05.828Z,75.80
2022-11-08T09:05:35.501Z,76.00
2022-11-08T09:08:02.187Z,75.70
2022-11-08T09:10:32.105Z,75.50
2022-11-08T09:12:58.801Z,76.60
2022-11-08T09:15:25.522Z,75.80
2022-11-08T09:17:55.966Z,75.30
2022-11-08T09:20:25.996Z,75.40
2022-11-08T09:22:52.665Z,75.30
2022-11-08T09:25:19.389Z,75.20
2022-11-08T09:27:46.060Z,75.10
2022-11-08T09:30:13.577Z,75.10
2022-11-08T09:32:59.665Z,75.00
2022-11-08T09:35:27.126Z,74.90
2022-11-08T09:37:54.411Z,74.80
2022-11-08T09:40:27.595Z,74.30
2022-11-08T09:43:32.776Z,74.20
2022-11-08T09:45:59.769Z,74.30
2022-11-08T09:48:29.664Z,74.20
2022-11-08T09:50:58.590Z,74.40
2022-11-08T09:53:35.362Z,73.70
2022-11-08T09:56:24.223Z,73.80
2022-11-08T09:59:11.937Z,73.90
2022-11-08T10:01:40.099Z,73.70
2022-11-08T10:04:17.083Z,73.80
2022-11-08T10:07:14.714Z,73.50
2022-11-08T10:09:53.417Z,73.60
2022-11-08T10:12:22.951Z,73.00
2022-11-08T10:15:11.466Z,72.90
2022-11-08T10:18:06.239Z,73.10
2022-11-08T10:21:01.645Z,73.10
2022-11-08T10:24:02.173Z,72.60
2022-11-08T10:26:35.554Z,72.80
2022-11-08T10:29:26.080Z,72.90
2022-11-08T10:32:18.276Z,72.20
2022-11-08T10:34:56.101Z,72.60
2022-11-08T10:37:24.141Z,72.60
2022-11-08T10:40:05.309Z,72.40
2022-11-08T10:42:50.399Z,72.50
2022-11-08T10:45:17.408Z,72.40
2022-11-08T10:47:46.116Z,72.50
2022-11-08T10:50:26.704Z,72.10
2022-11-08T10:53:02.528Z,71.90
2022-11-08T10:55:35.977Z,72.10
2022-11-08T10:58:02.907Z,72.10
2022-11-08T11:00:32.229Z,71.80
2022-11-08T11:03:16.460Z,72.00
2022-11-08T11:06:18.960Z,71.90
2022-11-08T11:08:50.904Z,71.40
2022-11-08T11:11:28.593Z,71.60
2022-11-08T11:14:19.434Z,71.40
2022-11-08T11:16:55.591Z,71.30
2022-11-08T11:19:24.109Z,71.10
2022-11-08T11:22:03.728Z,71.30
2022-11-08T11:24:31.830Z,71.40
2022-11-08T11:27:03.974Z,71.40
2022-11-08T11:29:38.686Z,71.20
2022-11-08T11:32:23.970Z,70.80
2022-11-08T11:34:54.252Z,71.00
2022-11-08T11:37:36.508Z,71.10
2022-11-08T11:40:15.107Z,71.10
2022-11-08T11:43:21.910Z,71.30
2022-11-08T11:46:08.670Z,71.00
2022-11-08T11:48:52.093Z,70.80
2022-11-08T11:51:19.172Z,70.70
2022-11-08T11:53:48.945Z,70.60
2022-11-08T11:56:50.308Z,70.60
2022-11-08T11:59:41.346Z,70.10
2022-11-08T12:02:41.498Z,70.40
2022-11-08T12:05:30.262Z,70.50
2022-11-08T12:08:08.060Z,70.20
2022-11-08T12:11:12.277Z,69.90
2022-11-08T12:14:17.574Z,70.10
2022-11-08T12:16:56.349Z,70.00
2022-11-08T12:19:32.142Z,70.00
2022-11-08T12:22:35.191Z,69.40
2022-11-08T12:25:05.637Z,69.30
2022-11-08T12:28:00.206Z,69.70
2022-11-08T12:30:45.734Z,69.40
2022-11-08T12:33:27.505Z,69.40
2022-11-08T12:36:37.642Z,69.60
2022-11-08T12:39:26.239Z,69.30
2022-11-08T12:42:11.710Z,69.70
2022-11-08T12:44:50.375Z,69.40
2022-11-08T12:47:46.040Z,69.30
2022-11-08T12:50:34.938Z,69.20
2022-11-08T12:53:25.962Z,69.30
2022-11-08T12:55:56.654Z,69.30
2022-11-08T12:58:34.181Z,69.10
2022-11-08T13:01:11.191Z,69.00
2022-11-08T13:03:58.674Z,69.40
2022-11-08T13:06:46.877Z,69.10
2022-11-08T13:09:42.292Z,69.00
2022-11-08T13:12:29.893Z,69.40
2022-11-08T13:15:00.553Z,69.00
2022-11-08T13:17:29.787Z,68.80
2022-11-08T13:20:06.737Z,68.90
2022-11-08T13:22:40.557Z,69.00
2022-11-08T13:25:13.260Z,69.00
2022-11-08T13:27:44.602Z,68.80
2022-11-08T13:30:11.236Z,68.70
2022-11-08T13:32:43.748Z,69.40
2022-11-08T13:35:46.962Z,68.60
2022-11-08T13:38:25.389Z,68.30
2022-11-08T13:41:12.611Z,68.60
2022-11-08T13:43:40.376Z,68.80
2022-11-08T13:46:42.852Z,68.80
2022-11-08T13:49:20.770Z,68.40
2022-11-08T13:51:47.513Z,68.60
2022-11-08T13:54:23.287Z,68.70
2022-11-08T13:57:01.189Z,68.40
2022-11-08T13:59:31.226Z,68.20
2022-11-08T14:02:28.001Z,68.10
2022-11-08T14:05:07.954Z,68.10
2022-11-08T14:08:07.038Z,68.10
2022-11-08T14:10:48.139Z,66.90
2022-11-08T14:13:22.619Z,68.50
2022-11-08T14:15:58.298Z,67.60
2022-11-08T14:18:32.095Z,67.80
2022-11-08T14:20:59.057Z,68.00
2022-11-08T14:23:40.640Z,68.20
2022-11-08T14:26:15.426Z,68.30
2022-11-08T14:28:44.962Z,68.10
2022-11-08T14:31:32.296Z,68.20
2022-11-08T14:34:01.846Z,68.20
2022-11-08T14:36:32.494Z,68.10
2022-11-08T14:39:11.958Z,68.30
2022-11-08T14:41:39.406Z,68.30
2022-11-08T14:44:11.820Z,68.30
2022-11-08T14:46:40.090Z,68.30
2022-11-08T14:49:31.597Z,68.50
2022-11-08T14:52:22.948Z,68.50
2022-11-08T14:55:06.237Z,68.30
2022-11-08T14:57:37.178Z,68.60
2022-11-08T15:00:12.824Z,69.50
2022-11-08T15:02:42.014Z,68.70
2022-11-08T15:05:31.163Z,68.80
2022-11-08T15:07:59.598Z,68.80
2022-11-08T15:10:27.506Z,68.80
2022-11-08T15:12:54.596Z,68.90
2022-11-08T15:15:26.777Z,69.00
2022-11-08T15:18:09.641Z,69.00
2022-11-08T15:20:37.257Z,69.00
2022-11-08T15:23:27.329Z,69.10
2022-11-08T15:25:59.311Z,69.10
2022-11-08T15:28:36.972Z,69.20
2022-11-08T15:31:05.045Z,69.20
2022-11-08T15:33:40.856Z,69.20
2022-11-08T15:36:16.286Z,69.40
2022-11-08T15:38:47.517Z,69.30
2022-11-08T15:41:35.683Z,69.40
2022-11-08T15:44:16.603Z,69.40
2022-11-08T15:46:44.090Z,69.30
2022-11-08T15:49:22.220Z,69.50
2022-11-08T15:51:50.580Z,69.60
2022-11-08T15:54:21.004Z,69.60
2022-11-08T15:56:49.542Z,69.70
2022-11-08T15:59:22.755Z,70.60
2022-11-08T16:02:00.558Z,69.70
2022-11-08T16:04:28.875Z,69.90
2022-11-08T16:06:56.355Z,70.00
2022-11-08T16:09:23.168Z,70.00
2022-11-08T16:11:50.381Z,70.00
2022-11-08T16:14:23.757Z,70.10
2022-11-08T16:16:50.900Z,70.20
2022-11-08T16:19:26.355Z,70.30
2022-11-08T16:21:55.099Z,70.40
2022-11-08T16:24:21.925Z,70.40
2022-11-08T16:26:49.235Z,70.60
2022-11-08T16:29:22.582Z,70.60
2022-11-08T16:31:53.861Z,70.60
2022-11-08T16:34:21.233Z,70.70
2022-11-08T16:36:49.361Z,70.80
2022-11-08T16:39:26.241Z,70.90
2022-11-08T16:41:53.227Z,70.90
2022-11-08T16:44:19.939Z,71.00
2022-11-08T16:46:46.795Z,71.10
2022-11-08T16:49:24.725Z,71.20
2022-11-08T16:51:51.569Z,71.20
2022-11-08T16:54:21.360Z,71.20
2022-11-08T16:56:48.124Z,71.20
2022-11-08T16:59:15.625Z,71.30
2022-11-08T17:01:42.959Z,71.40
2022-11-08T17:04:09.756Z,71.40
2022-11-08T17:06:36.597Z,71.40
2022-11-08T17:09:03.604Z,71.60
2022-11-08T17:11:30.457Z,71.60
2022-11-08T17:13:57.219Z,71.70
2022-11-08T17:16:24.020Z,71.80
2022-11-08T17:18:53.070Z,71.80
2022-11-08T17:24:07.977Z,71.90
2022-11-08T17:26:34.768Z,71.90
2022-11-08T17:29:01.563Z,72.00
2022-11-08T17:31:28.283Z,71.90
2022-11-08T17:33:55.997Z,72.00
2022-11-08T17:36:23.306Z,72.10
2022-11-08T17:38:50.079Z,72.10
2022-11-08T17:41:18.949Z,72.20
2022-11-08T17:43:45.777Z,72.20
2022-11-08T17:46:14.891Z,72.30
2022-11-08T17:48:41.662Z,72.50
2022-11-08T17:51:09.570Z,72.40
2022-11-08T17:53:36.585Z,72.50
2022-11-08T17:56:05.728Z,72.50
2022-11-08T17:58:34.176Z,72.60
2022-11-08T18:01:04.320Z,72.60
2022-11-08T18:03:31.745Z,72.80
2022-11-08T18:06:07.122Z,72.70
2022-11-08T18:08:34.838Z,72.80
2022-11-08T18:11:02.373Z,72.90
2022-11-08T18:13:29.869Z,73.00
2022-11-08T18:16:05.966Z,73.00
2022-11-08T18:18:32.712Z,73.00
2022-11-08T18:20:59.611Z,73.10
2022-11-08T18:23:26.458Z,73.10
2022-11-08T18:25:58.561Z,73.20
2022-11-08T18:28:25.339Z,73.20
2022-11-08T18:30:52.456Z,73.30
2022-11-08T18:33:21.147Z,73.30
2022-11-08T18:35:48.380Z,73.30
2022-11-08T18:38:15.201Z,73.40
2022-11-08T18:40:45.555Z,73.30
2022-11-08T18:43:12.404Z,74.20
2022-11-08T18:45:39.192Z,73.50
2022-11-08T18:48:06.459Z,73.50
2022-11-08T18:50:33.519Z,73.50
2022-11-08T18:53:03.685Z,73.60
2022-11-08T18:55:31.758Z,73.70
2022-11-08T18:58:01.105Z,73.70
2022-11-08T19:00:27.918Z,73.70
2022-11-08T19:02:55.045Z,73.70
2022-11-08T19:05:21.810Z,73.70
2022-11-08T19:07:48.517Z,73.80
2022-11-08T19:10:15.656Z,73.80
2022-11-08T19:12:48.186Z,73.90
2022-11-08T19:15:15.208Z,74.60
2022-11-08T19:17:42.700Z,73.80
2022-11-08T19:20:10.576Z,73.80
2022-11-08T19:22:37.789Z,73.90
2022-11-08T19:25:08.296Z,73.90
2022-11-08T19:27:34.994Z,73.90
2022-11-08T19:30:10.274Z,74.00
2022-11-08T19:32:37.039Z,74.70
2022-11-08T19:35:04.196Z,74.00
2022-11-08T19:37:30.913Z,74.70
2022-11-08T19:39:57.754Z,74.00
2022-11-08T19:42:24.599Z,74.00
2022-11-08T19:44:51.661Z,74.00
2022-11-08T19:47:18.565Z,74.00
2022-11-08T19:49:45.581Z,74.10
2022-11-08T19:52:12.301Z,74.10
2022-11-08T19:54:38.962Z,74.10
2022-11-08T19:57:06.490Z,74.10
2022-11-08T19:59:33.561Z,74.10
2022-11-08T20:02:00.567Z,74.10
2022-11-08T20:04:29.869Z,74.00
2022-11-08T20:06:56.569Z,74.10
2022-11-08T20:09:28.906Z,74.20
2022-11-08T20:11:57.188Z,74.20
2022-11-08T20:14:23.958Z,74.20
2022-11-08T20:16:53.452Z,74.20
2022-11-08T20:19:20.623Z,74.30
2022-11-08T20:21:47.426Z,74.30
2022-11-08T20:24:15.466Z,74.30
2022-11-08T20:26:42.642Z,74.40
2022-11-08T20:29:09.580Z,74.40
2022-11-08T20:31:36.543Z,74.40
2022-11-08T20:34:06.052Z,74.40
2022-11-08T20:36:35.444Z,74.50
2022-11-08T20:39:06.859Z,74.50
2022-11-08T20:41:38.931Z,74.60
2022-11-08T20:44:06.661Z,74.60
2022-11-08T20:46:34.650Z,74.60
2022-11-08T20:49:06.986Z,74.60
2022-11-08T20:51:34.616Z,75.20
2022-11-08T20:54:01.805Z,74.60
2022-11-08T20:56:29.288Z,74.60
2022-11-08T20:58:56.443Z,74.50
2022-11-08T21:01:25.499Z,74.50
2022-11-08T21:03:55.302Z,74.50
2022-11-08T21:06:24.028Z,74.60
2022-11-08T21:09:01.819Z,74.50
2022-11-08T21:11:35.520Z,74.50
2022-11-08T21:14:03.751Z,74.60
2022-11-08T21:16:35.399Z,74.60
2022-11-08T21:19:12.478Z,74.70
2022-11-08T21:21:39.325Z,74.70
2022-11-08T21:24:06.470Z,74.70
2022-11-08T21:26:36.547Z,74.80
2022-11-08T21:29:07.637Z,74.90
2022-11-08T21:31:34.607Z,74.90
2022-11-08T21:34:01.518Z,75.00
2022-11-08T21:36:29.184Z,74.90
2022-11-08T21:38:56.016Z,75.10
2022-11-08T21:41:22.924Z,75.10
2022-11-08T21:43:49.881Z,75.10
2022-11-08T21:46:22.373Z,75.20
2022-11-08T21:48:54.135Z,75.30
2022-11-08T21:51:21.157Z,75.30
2022-11-08T21:53:55.531Z,75.40
2022-11-08T21:56:24.613Z,75.40
2022-11-08T21:58:51.652Z,75.40
2022-11-08T22:01:18.976Z,75.30
2022-11-08T22:03:46.360Z,75.40
2022-11-08T22:06:13.168Z,75.40
2022-11-08T22:08:39.994Z,75.40
2022-11-08T22:11:06.665Z,75.40
2022-11-08T22:13:33.640Z,75.30
2022-11-08T22:16:02.994Z,75.40
2022-11-08T22:18:58.854Z,75.40
2022-11-08T22:21:35.132Z,75.40
2022-11-08T22:24:02.010Z,75.50
2022-11-08T22:26:28.783Z,75.50
2022-11-08T22:28:55.468Z,75.40
2022-11-08T22:31:22.392Z,75.50
2022-11-08T22:33:49.212Z,75.60
2022-11-08T22:36:19.168Z,75.60
2022-11-08T22:38:46.512Z,75.70
2022-11-08T22:41:21.068Z,75.70
2022-11-08T22:43:51.376Z,75.70
2022-11-08T22:46:18.582Z,75.80
2022-11-08T22:48:46.368Z,75.80
2022-11-08T22:51:13.259Z,75.80
2022-11-08T22:53:40.042Z,75.90
2022-11-08T22:56:11.659Z,76.00
2022-11-08T22:58:39.648Z,76.00
2022-11-08T23:01:07.647Z,75.80
2022-11-08T23:03:34.385Z,75.90
2022-11-08T23:06:01.186Z,76.00
2022-11-08T23:08:31.900Z,76.10
2022-11-08T23:11:18.632Z,76.10
2022-11-08T23:14:04.116Z,76.20
2022-11-08T23:16:40.370Z,76.20
2022-11-08T23:19:40.774Z,76.20
2022-11-08T23:22:30.963Z,76.10
2022-11-08T23:24:57.903Z,76.20
2022-11-08T23:27:46.470Z,76.30
2022-11-08T23:30:34.910Z,76.40
2022-11-08T23:33:01.772Z,76.40
2022-11-08T23:35:28.458Z,76.40
2022-11-08T23:37:55.506Z,76.30
2022-11-08T23:40:41.162Z,76.30
2022-11-08T23:43:32.455Z,76.40
2022-11-08T23:46:08.364Z,76.40
2022-11-08T23:48:38.737Z,76.40
2022-11-08T23:51:06.499Z,76.50
2022-11-08T23:53:34.681Z,76.40
2022-11-08T23:56:01.485Z,76.40
2022-11-08T23:58:28.288Z,76.30
